X  Fechar Metar - Info de Aeroporto     LBPD Plovdiv International Airport
Temperatura
52°F Temperatura
45°F Ptº Orvalho
77% Humidade



Vento
7 MPH
11 KM/H
3 M/S
6 NÓS



80°
L
Condições Atuais

Luz Chuva Luz Chuva
Pressão 1015.92 (hPa) - 30 (inHg)
Visibilidade 6 (milha) - 9.7 (km)
Aeroporto
Código-Aeropoto LBPD

Localização: Plovdiv International Airport
Distância: 14 (mi)

Metar:
LBPD 250200Z AUTO 08006KT 9999 -RA OVC070/// 11/07 Q1016

Hora: 25-02-2024 04:00 EET